Terminal Aerodrome Forecast
Issued by NWS Tuscon, AZ

Home | Current Version | Previous Version | Text Only | Print | Product List | Glossary On
Versions: 1 2 3 4 5 6 7 8 9 10 11 12 13 14
574
FTUS45 KTWC 232333
TAFDUG
TAF
KDUG 232333Z 2400/2424 27018G26KT P6SM SCT100
     FM240200 32013KT P6SM FEW100
     FM240500 35008KT P6SM SKC
     FM241800 33011G18KT P6SM SKC=

USA.gov is the U.S. government's official web portal to all federal, state and local government web resources and services.